sensor_id;sensor_type;location;lat;lon;timestamp;P1;durP1;ratioP1;P2;durP2;ratioP2
21927;SDS011;11128;51.096;17.190;2023-08-06T00:04:56;1.33;;;1.20;;
21927;SDS011;11128;51.096;17.190;2023-08-06T00:09:57;1.40;;;1.05;;
21927;SDS011;11128;51.096;17.190;2023-08-06T00:14:58;1.88;;;0.75;;
21927;SDS011;11128;51.096;17.190;2023-08-06T00:20:00;2.45;;;1.13;;
21927;SDS011;11128;51.096;17.190;2023-08-06T00:25:06;3.28;;;0.80;;
21927;SDS011;11128;51.096;17.190;2023-08-06T00:30:08;0.65;;;0.65;;
21927;SDS011;11128;51.096;17.190;2023-08-06T00:35:10;0.70;;;0.70;;
21927;SDS011;11128;51.096;17.190;2023-08-06T00:40:11;0.60;;;0.60;;
21927;SDS011;11128;51.096;17.190;2023-08-06T00:45:12;0.73;;;0.73;;
21927;SDS011;11128;51.096;17.190;2023-08-06T00:50:14;0.70;;;0.70;;
21927;SDS011;11128;51.096;17.190;2023-08-06T00:55:16;1.95;;;1.10;;
21927;SDS011;11128;51.096;17.190;2023-08-06T01:00:21;0.80;;;0.80;;
21927;SDS011;11128;51.096;17.190;2023-08-06T01:05:24;0.60;;;0.60;;
21927;SDS011;11128;51.096;17.190;2023-08-06T01:16:05;0.70;;;0.60;;
21927;SDS011;11128;51.096;17.190;2023-08-06T01:21:08;0.95;;;0.70;;
21927;SDS011;11128;51.096;17.190;2023-08-06T01:31:21;0.50;;;0.50;;
21927;SDS011;11128;51.096;17.190;2023-08-06T01:36:25;0.75;;;0.68;;
21927;SDS011;11128;51.096;17.190;2023-08-06T01:41:27;0.95;;;0.65;;
21927;SDS011;11128;51.096;17.190;2023-08-06T01:46:28;0.50;;;0.50;;
21927;SDS011;11128;51.096;17.190;2023-08-06T01:51:30;0.82;;;0.50;;
21927;SDS011;11128;51.096;17.190;2023-08-06T01:56:31;0.50;;;0.50;;
21927;SDS011;11128;51.096;17.190;2023-08-06T02:01:32;3.38;;;0.40;;
21927;SDS011;11128;51.096;17.190;2023-08-06T02:06:33;0.45;;;0.40;;
21927;SDS011;11128;51.096;17.190;2023-08-06T02:11:35;0.98;;;0.47;;
21927;SDS011;11128;51.096;17.190;2023-08-06T02:16:36;0.30;;;0.30;;
21927;SDS011;11128;51.096;17.190;2023-08-06T02:21:37;0.30;;;0.30;;
21927;SDS011;11128;51.096;17.190;2023-08-06T02:26:39;0.40;;;0.40;;
21927;SDS011;11128;51.096;17.190;2023-08-06T02:31:40;0.40;;;0.40;;
21927;SDS011;11128;51.096;17.190;2023-08-06T02:36:42;0.40;;;0.40;;
21927;SDS011;11128;51.096;17.190;2023-08-06T02:41:43;0.40;;;0.40;;
21927;SDS011;11128;51.096;17.190;2023-08-06T02:46:45;0.40;;;0.40;;
21927;SDS011;11128;51.096;17.190;2023-08-06T02:51:46;0.55;;;0.43;;
21927;SDS011;11128;51.096;17.190;2023-08-06T02:56:47;0.50;;;0.25;;
21927;SDS011;11128;51.096;17.190;2023-08-06T03:01:48;0.30;;;0.30;;
21927;SDS011;11128;51.096;17.190;2023-08-06T03:06:50;0.40;;;0.35;;
21927;SDS011;11128;51.096;17.190;2023-08-06T03:11:51;0.43;;;0.43;;
21927;SDS011;11128;51.096;17.190;2023-08-06T03:16:52;0.75;;;0.50;;
21927;SDS011;11128;51.096;17.190;2023-08-06T03:21:54;0.30;;;0.30;;
21927;SDS011;11128;51.096;17.190;2023-08-06T03:26:55;1.27;;;0.25;;
21927;SDS011;11128;51.096;17.190;2023-08-06T03:31:56;0.68;;;0.32;;
21927;SDS011;11128;51.096;17.190;2023-08-06T03:36:58;0.28;;;0.20;;
21927;SDS011;11128;51.096;17.190;2023-08-06T03:41:59;0.40;;;0.22;;
21927;SDS011;11128;51.096;17.190;2023-08-06T03:47:00;0.55;;;0.30;;
21927;SDS011;11128;51.096;17.190;2023-08-06T03:52:02;0.20;;;0.20;;
21927;SDS011;11128;51.096;17.190;2023-08-06T03:57:03;0.50;;;0.20;;
21927;SDS011;11128;51.096;17.190;2023-08-06T04:02:05;0.10;;;0.10;;
21927;SDS011;11128;51.096;17.190;2023-08-06T04:07:06;0.30;;;0.30;;
21927;SDS011;11128;51.096;17.190;2023-08-06T04:12:07;0.70;;;0.20;;
21927;SDS011;11128;51.096;17.190;2023-08-06T04:17:08;0.30;;;0.20;;
21927;SDS011;11128;51.096;17.190;2023-08-06T04:22:10;0.68;;;0.20;;
21927;SDS011;11128;51.096;17.190;2023-08-06T04:27:11;0.30;;;0.30;;
21927;SDS011;11128;51.096;17.190;2023-08-06T04:32:14;0.22;;;0.22;;
21927;SDS011;11128;51.096;17.190;2023-08-06T04:37:15;0.20;;;0.20;;
21927;SDS011;11128;51.096;17.190;2023-08-06T04:42:19;0.20;;;0.20;;
21927;SDS011;11128;51.096;17.190;2023-08-06T04:47:21;0.10;;;0.10;;
21927;SDS011;11128;51.096;17.190;2023-08-06T04:52:22;0.77;;;0.30;;
21927;SDS011;11128;51.096;17.190;2023-08-06T04:57:23;0.57;;;0.20;;
21927;SDS011;11128;51.096;17.190;2023-08-06T05:02:25;0.17;;;0.17;;
21927;SDS011;11128;51.096;17.190;2023-08-06T05:07:26;0.17;;;0.17;;
21927;SDS011;11128;51.096;17.190;2023-08-06T05:12:28;0.10;;;0.10;;
21927;SDS011;11128;51.096;17.190;2023-08-06T05:17:29;1.00;;;0.20;;
21927;SDS011;11128;51.096;17.190;2023-08-06T05:22:30;0.15;;;0.10;;
21927;SDS011;11128;51.096;17.190;2023-08-06T05:27:32;0.10;;;0.10;;
21927;SDS011;11128;51.096;17.190;2023-08-06T05:32:33;0.10;;;0.10;;
21927;SDS011;11128;51.096;17.190;2023-08-06T05:37:34;1.83;;;0.30;;
21927;SDS011;11128;51.096;17.190;2023-08-06T05:42:36;0.17;;;0.17;;
21927;SDS011;11128;51.096;17.190;2023-08-06T05:47:37;0.20;;;0.20;;
21927;SDS011;11128;51.096;17.190;2023-08-06T05:52:39;0.65;;;0.10;;
21927;SDS011;11128;51.096;17.190;2023-08-06T05:57:40;0.25;;;0.20;;
21927;SDS011;11128;51.096;17.190;2023-08-06T06:02:41;0.25;;;0.10;;
21927;SDS011;11128;51.096;17.190;2023-08-06T06:07:43;0.10;;;0.10;;
21927;SDS011;11128;51.096;17.190;2023-08-06T06:12:44;0.10;;;0.10;;
21927;SDS011;11128;51.096;17.190;2023-08-06T06:17:45;0.65;;;0.10;;
21927;SDS011;11128;51.096;17.190;2023-08-06T06:22:46;0.10;;;0.10;;
21927;SDS011;11128;51.096;17.190;2023-08-06T06:27:48;0.10;;;0.10;;
21927;SDS011;11128;51.096;17.190;2023-08-06T06:32:49;0.10;;;0.10;;
21927;SDS011;11128;51.096;17.190;2023-08-06T06:37:50;0.20;;;0.15;;
21927;SDS011;11128;51.096;17.190;2023-08-06T06:42:52;1.27;;;0.22;;
21927;SDS011;11128;51.096;17.190;2023-08-06T06:47:53;0.55;;;0.20;;
21927;SDS011;11128;51.096;17.190;2023-08-06T06:52:55;0.25;;;0.20;;
21927;SDS011;11128;51.096;17.190;2023-08-06T06:57:56;0.13;;;0.13;;
21927;SDS011;11128;51.096;17.190;2023-08-06T07:02:58;1.90;;;0.20;;
21927;SDS011;11128;51.096;17.190;2023-08-06T07:07:59;0.20;;;0.20;;
21927;SDS011;11128;51.096;17.190;2023-08-06T07:13:00;0.15;;;0.10;;
21927;SDS011;11128;51.096;17.190;2023-08-06T07:18:02;0.10;;;0.10;;
21927;SDS011;11128;51.096;17.190;2023-08-06T07:23:03;0.10;;;0.10;;
21927;SDS011;11128;51.096;17.190;2023-08-06T07:28:04;0.10;;;0.10;;
21927;SDS011;11128;51.096;17.190;2023-08-06T07:33:06;0.10;;;0.10;;
21927;SDS011;11128;51.096;17.190;2023-08-06T07:38:07;0.20;;;0.20;;
21927;SDS011;11128;51.096;17.190;2023-08-06T07:43:09;0.10;;;0.10;;
21927;SDS011;11128;51.096;17.190;2023-08-06T07:48:10;0.20;;;0.20;;
21927;SDS011;11128;51.096;17.190;2023-08-06T07:53:12;0.43;;;0.20;;
21927;SDS011;11128;51.096;17.190;2023-08-06T07:58:13;0.25;;;0.20;;
21927;SDS011;11128;51.096;17.190;2023-08-06T08:03:15;0.20;;;0.20;;
21927;SDS011;11128;51.096;17.190;2023-08-06T08:08:17;0.20;;;0.20;;
21927;SDS011;11128;51.096;17.190;2023-08-06T08:13:18;0.80;;;0.30;;
21927;SDS011;11128;51.096;17.190;2023-08-06T08:18:19;0.20;;;0.20;;
21927;SDS011;11128;51.096;17.190;2023-08-06T08:23:21;0.50;;;0.40;;
21927;SDS011;11128;51.096;17.190;2023-08-06T08:28:22;0.20;;;0.20;;
21927;SDS011;11128;51.096;17.190;2023-08-06T08:33:24;0.30;;;0.30;;
21927;SDS011;11128;51.096;17.190;2023-08-06T08:38:25;0.98;;;0.50;;
21927;SDS011;11128;51.096;17.190;2023-08-06T08:43:26;0.40;;;0.40;;
21927;SDS011;11128;51.096;17.190;2023-08-06T08:48:28;1.30;;;0.47;;
21927;SDS011;11128;51.096;17.190;2023-08-06T08:53:30;0.60;;;0.60;;
21927;SDS011;11128;51.096;17.190;2023-08-06T08:58:32;0.70;;;0.70;;
21927;SDS011;11128;51.096;17.190;2023-08-06T09:03:33;0.63;;;0.63;;
21927;SDS011;11128;51.096;17.190;2023-08-06T09:08:39;0.95;;;0.52;;
21927;SDS011;11128;51.096;17.190;2023-08-06T09:13:43;1.48;;;0.73;;
21927;SDS011;11128;51.096;17.190;2023-08-06T09:18:45;0.50;;;0.40;;
21927;SDS011;11128;51.096;17.190;2023-08-06T09:23:46;0.30;;;0.30;;
21927;SDS011;11128;51.096;17.190;2023-08-06T09:28:48;0.57;;;0.25;;
21927;SDS011;11128;51.096;17.190;2023-08-06T09:33:49;0.73;;;0.30;;
21927;SDS011;11128;51.096;17.190;2023-08-06T09:38:50;0.20;;;0.20;;
21927;SDS011;11128;51.096;17.190;2023-08-06T09:43:51;0.95;;;0.30;;
21927;SDS011;11128;51.096;17.190;2023-08-06T09:48:53;0.32;;;0.32;;
21927;SDS011;11128;51.096;17.190;2023-08-06T09:53:55;0.30;;;0.30;;
21927;SDS011;11128;51.096;17.190;2023-08-06T09:58:57;1.45;;;0.40;;
21927;SDS011;11128;51.096;17.190;2023-08-06T10:03:59;0.98;;;0.30;;
21927;SDS011;11128;51.096;17.190;2023-08-06T10:09:03;0.63;;;0.30;;
21927;SDS011;11128;51.096;17.190;2023-08-06T10:19:27;0.15;;;0.15;;
21927;SDS011;11128;51.096;17.190;2023-08-06T10:24:44;0.65;;;0.45;;
21927;SDS011;11128;51.096;17.190;2023-08-06T10:29:53;1.50;;;0.45;;
21927;SDS011;11128;51.096;17.190;2023-08-06T10:34:57;0.38;;;0.30;;
21927;SDS011;11128;51.096;17.190;2023-08-06T10:40:00;0.80;;;0.40;;
21927;SDS011;11128;51.096;17.190;2023-08-06T10:45:15;0.30;;;0.30;;
21927;SDS011;11128;51.096;17.190;2023-08-06T10:50:20;0.60;;;0.50;;
21927;SDS011;11128;51.096;17.190;2023-08-06T10:55:28;0.25;;;0.25;;
21927;SDS011;11128;51.096;17.190;2023-08-06T11:00:30;0.55;;;0.40;;
21927;SDS011;11128;51.096;17.190;2023-08-06T11:05:31;0.20;;;0.20;;
21927;SDS011;11128;51.096;17.190;2023-08-06T11:10:33;0.47;;;0.25;;
21927;SDS011;11128;51.096;17.190;2023-08-06T11:15:35;0.45;;;0.45;;
21927;SDS011;11128;51.096;17.190;2023-08-06T11:20:37;0.35;;;0.35;;
21927;SDS011;11128;51.096;17.190;2023-08-06T11:25:45;0.30;;;0.20;;
21927;SDS011;11128;51.096;17.190;2023-08-06T11:30:47;0.25;;;0.25;;
21927;SDS011;11128;51.096;17.190;2023-08-06T11:35:49;0.25;;;0.25;;
21927;SDS011;11128;51.096;17.190;2023-08-06T11:40:51;0.20;;;0.20;;
21927;SDS011;11128;51.096;17.190;2023-08-06T11:45:54;0.50;;;0.50;;
21927;SDS011;11128;51.096;17.190;2023-08-06T11:50:56;0.30;;;0.30;;
21927;SDS011;11128;51.096;17.190;2023-08-06T11:55:58;0.43;;;0.40;;
21927;SDS011;11128;51.096;17.190;2023-08-06T12:00:59;0.38;;;0.30;;
21927;SDS011;11128;51.096;17.190;2023-08-06T12:06:01;0.30;;;0.30;;
21927;SDS011;11128;51.096;17.190;2023-08-06T12:11:02;0.20;;;0.20;;
21927;SDS011;11128;51.096;17.190;2023-08-06T12:16:04;0.30;;;0.30;;
21927;SDS011;11128;51.096;17.190;2023-08-06T12:21:05;0.63;;;0.30;;
21927;SDS011;11128;51.096;17.190;2023-08-06T12:26:07;0.40;;;0.30;;
21927;SDS011;11128;51.096;17.190;2023-08-06T12:31:08;0.47;;;0.20;;
21927;SDS011;11128;51.096;17.190;2023-08-06T12:36:10;0.43;;;0.30;;
21927;SDS011;11128;51.096;17.190;2023-08-06T12:41:11;0.35;;;0.30;;
21927;SDS011;11128;51.096;17.190;2023-08-06T12:46:12;0.60;;;0.40;;
21927;SDS011;11128;51.096;17.190;2023-08-06T12:51:14;0.50;;;0.50;;
21927;SDS011;11128;51.096;17.190;2023-08-06T12:56:16;0.32;;;0.32;;
21927;SDS011;11128;51.096;17.190;2023-08-06T13:01:17;0.50;;;0.50;;
21927;SDS011;11128;51.096;17.190;2023-08-06T13:06:18;0.45;;;0.45;;
21927;SDS011;11128;51.096;17.190;2023-08-06T13:11:20;0.70;;;0.57;;
21927;SDS011;11128;51.096;17.190;2023-08-06T13:16:21;0.73;;;0.50;;
21927;SDS011;11128;51.096;17.190;2023-08-06T13:21:23;0.45;;;0.45;;
21927;SDS011;11128;51.096;17.190;2023-08-06T13:26:24;1.60;;;0.60;;
21927;SDS011;11128;51.096;17.190;2023-08-06T13:31:26;0.50;;;0.47;;
21927;SDS011;11128;51.096;17.190;2023-08-06T13:36:27;0.80;;;0.50;;
21927;SDS011;11128;51.096;17.190;2023-08-06T13:41:29;1.52;;;0.80;;
21927;SDS011;11128;51.096;17.190;2023-08-06T13:46:30;0.68;;;0.68;;
21927;SDS011;11128;51.096;17.190;2023-08-06T13:51:32;1.02;;;0.50;;
21927;SDS011;11128;51.096;17.190;2023-08-06T13:56:34;1.05;;;0.70;;
21927;SDS011;11128;51.096;17.190;2023-08-06T14:01:38;0.77;;;0.60;;
21927;SDS011;11128;51.096;17.190;2023-08-06T14:06:39;0.65;;;0.60;;
21927;SDS011;11128;51.096;17.190;2023-08-06T14:11:40;1.08;;;0.68;;
21927;SDS011;11128;51.096;17.190;2023-08-06T14:16:42;0.50;;;0.50;;
21927;SDS011;11128;51.096;17.190;2023-08-06T14:21:43;0.40;;;0.20;;
21927;SDS011;11128;51.096;17.190;2023-08-06T14:26:45;0.30;;;0.30;;
21927;SDS011;11128;51.096;17.190;2023-08-06T14:31:46;0.40;;;0.40;;
21927;SDS011;11128;51.096;17.190;2023-08-06T14:36:48;0.40;;;0.40;;
21927;SDS011;11128;51.096;17.190;2023-08-06T14:41:49;0.82;;;0.60;;
21927;SDS011;11128;51.096;17.190;2023-08-06T14:46:51;1.17;;;0.70;;
21927;SDS011;11128;51.096;17.190;2023-08-06T14:51:52;0.77;;;0.68;;
21927;SDS011;11128;51.096;17.190;2023-08-06T14:56:54;1.33;;;0.80;;
21927;SDS011;11128;51.096;17.190;2023-08-06T15:01:55;1.10;;;0.80;;
21927;SDS011;11128;51.096;17.190;2023-08-06T15:06:57;0.65;;;0.65;;
21927;SDS011;11128;51.096;17.190;2023-08-06T15:11:58;1.15;;;0.80;;
21927;SDS011;11128;51.096;17.190;2023-08-06T15:17:00;1.20;;;0.73;;
21927;SDS011;11128;51.096;17.190;2023-08-06T15:22:01;0.75;;;0.73;;
21927;SDS011;11128;51.096;17.190;2023-08-06T15:27:03;1.33;;;0.93;;
21927;SDS011;11128;51.096;17.190;2023-08-06T15:32:05;2.15;;;0.80;;
21927;SDS011;11128;51.096;17.190;2023-08-06T15:37:06;0.70;;;0.70;;
21927;SDS011;11128;51.096;17.190;2023-08-06T15:42:11;2.28;;;0.70;;
21927;SDS011;11128;51.096;17.190;2023-08-06T15:47:13;0.77;;;0.77;;
21927;SDS011;11128;51.096;17.190;2023-08-06T15:52:15;0.93;;;0.70;;
21927;SDS011;11128;51.096;17.190;2023-08-06T15:57:18;2.30;;;0.90;;
21927;SDS011;11128;51.096;17.190;2023-08-06T16:02:19;0.90;;;0.90;;
21927;SDS011;11128;51.096;17.190;2023-08-06T16:07:22;0.93;;;0.93;;
21927;SDS011;11128;51.096;17.190;2023-08-06T16:12:26;1.17;;;1.08;;
21927;SDS011;11128;51.096;17.190;2023-08-06T16:17:28;1.85;;;1.10;;
21927;SDS011;11128;51.096;17.190;2023-08-06T16:22:29;1.00;;;0.90;;
21927;SDS011;11128;51.096;17.190;2023-08-06T16:27:31;3.40;;;1.30;;
21927;SDS011;11128;51.096;17.190;2023-08-06T16:32:32;1.25;;;1.08;;
21927;SDS011;11128;51.096;17.190;2023-08-06T16:37:34;2.17;;;1.27;;
21927;SDS011;11128;51.096;17.190;2023-08-06T16:42:36;1.95;;;1.45;;
21927;SDS011;11128;51.096;17.190;2023-08-06T16:47:37;1.15;;;1.05;;
21927;SDS011;11128;51.096;17.190;2023-08-06T16:52:39;1.55;;;1.13;;
21927;SDS011;11128;51.096;17.190;2023-08-06T16:57:40;1.42;;;1.33;;
21927;SDS011;11128;51.096;17.190;2023-08-06T17:02:42;1.80;;;1.17;;
21927;SDS011;11128;51.096;17.190;2023-08-06T17:07:43;1.92;;;1.17;;
21927;SDS011;11128;51.096;17.190;2023-08-06T17:12:45;1.13;;;1.02;;
21927;SDS011;11128;51.096;17.190;2023-08-06T17:17:47;1.88;;;1.17;;
21927;SDS011;11128;51.096;17.190;2023-08-06T17:22:48;2.33;;;1.60;;
21927;SDS011;11128;51.096;17.190;2023-08-06T17:27:50;1.33;;;1.08;;
21927;SDS011;11128;51.096;17.190;2023-08-06T17:32:51;1.58;;;1.25;;
21927;SDS011;11128;51.096;17.190;2023-08-06T17:37:53;1.42;;;1.00;;
21927;SDS011;11128;51.096;17.190;2023-08-06T17:42:54;1.20;;;1.05;;
21927;SDS011;11128;51.096;17.190;2023-08-06T17:47:56;1.48;;;1.23;;
21927;SDS011;11128;51.096;17.190;2023-08-06T17:52:57;1.85;;;1.50;;
21927;SDS011;11128;51.096;17.190;2023-08-06T17:57:58;1.88;;;1.40;;
21927;SDS011;11128;51.096;17.190;2023-08-06T18:03:00;1.80;;;1.55;;
21927;SDS011;11128;51.096;17.190;2023-08-06T18:08:02;1.50;;;1.35;;
21927;SDS011;11128;51.096;17.190;2023-08-06T18:13:05;1.52;;;1.42;;
21927;SDS011;11128;51.096;17.190;2023-08-06T18:18:07;2.30;;;1.63;;
21927;SDS011;11128;51.096;17.190;2023-08-06T18:23:10;2.92;;;1.40;;
21927;SDS011;11128;51.096;17.190;2023-08-06T18:28:11;2.70;;;1.60;;
21927;SDS011;11128;51.096;17.190;2023-08-06T18:33:13;2.15;;;1.95;;
21927;SDS011;11128;51.096;17.190;2023-08-06T18:38:14;3.90;;;1.52;;
21927;SDS011;11128;51.096;17.190;2023-08-06T18:43:15;1.70;;;1.52;;
21927;SDS011;11128;51.096;17.190;2023-08-06T18:48:17;1.33;;;1.20;;
21927;SDS011;11128;51.096;17.190;2023-08-06T18:53:18;1.92;;;1.40;;
21927;SDS011;11128;51.096;17.190;2023-08-06T18:58:20;1.85;;;1.30;;
21927;SDS011;11128;51.096;17.190;2023-08-06T19:03:21;1.98;;;1.35;;
21927;SDS011;11128;51.096;17.190;2023-08-06T19:08:23;2.72;;;1.40;;
21927;SDS011;11128;51.096;17.190;2023-08-06T19:13:24;1.20;;;1.10;;
21927;SDS011;11128;51.096;17.190;2023-08-06T19:18:25;1.10;;;1.05;;
21927;SDS011;11128;51.096;17.190;2023-08-06T19:23:27;1.80;;;1.38;;
21927;SDS011;11128;51.096;17.190;2023-08-06T19:28:28;2.47;;;1.30;;
21927;SDS011;11128;51.096;17.190;2023-08-06T19:33:30;3.20;;;1.55;;
21927;SDS011;11128;51.096;17.190;2023-08-06T19:38:32;1.50;;;1.40;;
21927;SDS011;11128;51.096;17.190;2023-08-06T19:43:34;1.70;;;1.38;;
21927;SDS011;11128;51.096;17.190;2023-08-06T19:48:37;2.60;;;1.58;;
21927;SDS011;11128;51.096;17.190;2023-08-06T19:53:38;2.03;;;1.60;;
21927;SDS011;11128;51.096;17.190;2023-08-06T19:58:43;2.33;;;1.90;;
21927;SDS011;11128;51.096;17.190;2023-08-06T20:03:45;2.70;;;1.85;;
21927;SDS011;11128;51.096;17.190;2023-08-06T20:08:46;6.00;;;2.05;;
21927;SDS011;11128;51.096;17.190;2023-08-06T20:13:48;2.75;;;1.98;;
21927;SDS011;11128;51.096;17.190;2023-08-06T20:18:50;2.80;;;1.70;;
21927;SDS011;11128;51.096;17.190;2023-08-06T20:23:51;2.00;;;1.80;;
21927;SDS011;11128;51.096;17.190;2023-08-06T20:28:53;2.72;;;1.98;;
21927;SDS011;11128;51.096;17.190;2023-08-06T20:33:54;2.90;;;1.92;;
21927;SDS011;11128;51.096;17.190;2023-08-06T20:38:56;2.40;;;2.08;;
21927;SDS011;11128;51.096;17.190;2023-08-06T20:43:57;5.05;;;2.10;;
21927;SDS011;11128;51.096;17.190;2023-08-06T20:48:58;2.28;;;2.05;;
21927;SDS011;11128;51.096;17.190;2023-08-06T20:54:00;2.78;;;2.00;;
21927;SDS011;11128;51.096;17.190;2023-08-06T20:59:01;2.78;;;1.90;;
21927;SDS011;11128;51.096;17.190;2023-08-06T21:04:03;2.65;;;2.00;;
21927;SDS011;11128;51.096;17.190;2023-08-06T21:09:05;2.75;;;1.95;;
21927;SDS011;11128;51.096;17.190;2023-08-06T21:14:07;2.92;;;1.83;;
21927;SDS011;11128;51.096;17.190;2023-08-06T21:19:09;4.00;;;1.90;;
21927;SDS011;11128;51.096;17.190;2023-08-06T21:24:30;3.65;;;2.78;;
21927;SDS011;11128;51.096;17.190;2023-08-06T21:29:31;3.83;;;1.75;;
21927;SDS011;11128;51.096;17.190;2023-08-06T21:34:32;2.00;;;1.52;;
21927;SDS011;11128;51.096;17.190;2023-08-06T21:39:33;3.40;;;1.75;;
21927;SDS011;11128;51.096;17.190;2023-08-06T21:44:35;3.10;;;1.85;;
21927;SDS011;11128;51.096;17.190;2023-08-06T21:49:36;3.60;;;1.70;;
21927;SDS011;11128;51.096;17.190;2023-08-06T21:54:38;2.97;;;2.05;;
21927;SDS011;11128;51.096;17.190;2023-08-06T21:59:39;3.42;;;1.95;;
21927;SDS011;11128;51.096;17.190;2023-08-06T22:04:40;2.10;;;1.60;;
21927;SDS011;11128;51.096;17.190;2023-08-06T22:09:42;3.25;;;1.77;;
21927;SDS011;11128;51.096;17.190;2023-08-06T22:14:43;1.98;;;1.80;;
21927;SDS011;11128;51.096;17.190;2023-08-06T22:19:46;6.32;;;1.80;;
21927;SDS011;11128;51.096;17.190;2023-08-06T22:24:47;1.95;;;1.67;;
21927;SDS011;11128;51.096;17.190;2023-08-06T22:29:49;1.52;;;1.42;;
21927;SDS011;11128;51.096;17.190;2023-08-06T22:34:50;3.78;;;1.65;;
21927;SDS011;11128;51.096;17.190;2023-08-06T22:39:51;2.42;;;1.60;;
21927;SDS011;11128;51.096;17.190;2023-08-06T22:44:58;2.38;;;1.73;;
21927;SDS011;11128;51.096;17.190;2023-08-06T22:49:59;2.17;;;1.60;;
21927;SDS011;11128;51.096;17.190;2023-08-06T22:55:02;1.75;;;1.58;;
21927;SDS011;11128;51.096;17.190;2023-08-06T23:00:04;2.05;;;1.60;;
21927;SDS011;11128;51.096;17.190;2023-08-06T23:05:06;4.95;;;2.15;;
21927;SDS011;11128;51.096;17.190;2023-08-06T23:10:08;3.25;;;1.42;;
21927;SDS011;11128;51.096;17.190;2023-08-06T23:15:09;3.13;;;1.70;;
21927;SDS011;11128;51.096;17.190;2023-08-06T23:20:11;1.55;;;1.45;;
21927;SDS011;11128;51.096;17.190;2023-08-06T23:25:12;2.67;;;1.65;;
21927;SDS011;11128;51.096;17.190;2023-08-06T23:30:13;5.65;;;1.70;;
21927;SDS011;11128;51.096;17.190;2023-08-06T23:35:15;2.55;;;1.90;;
21927;SDS011;11128;51.096;17.190;2023-08-06T23:40:16;2.65;;;1.45;;
21927;SDS011;11128;51.096;17.190;2023-08-06T23:45:18;3.10;;;1.88;;
21927;SDS011;11128;51.096;17.190;2023-08-06T23:50:20;3.08;;;1.83;;
21927;SDS011;11128;51.096;17.190;2023-08-06T23:55:21;2.10;;;1.50;;
